Time;durP1;ratioP1;P1;durP2;ratioP2;P2;SDS_P1;SDS_P2;PMS_P1;PMS_P2;Temp;Humidity;BMP_temperature;BMP_pressure;BME280_temperature;BME280_humidity;BME280_pressure;Samples;Min_cycle;Max_cycle;Signal;HPM_P1;HPM_P2
2023/01/03 00:00:34;;;;;;;1.08;0.82;;;;;;;3.10;58.98;96381.63;4989207;28;20539;-73
2023/01/03 00:03:00;;;;;;;2.03;1.23;;;;;;;2.89;58.60;96395.34;5009012;28;20072;-73
2023/01/03 00:05:25;;;;;;;1.83;1.42;;;;;;;2.97;59.20;96381.66;5005765;28;20095;-73
2023/01/03 00:07:50;;;;;;;4.22;1.10;;;;;;;2.94;58.84;96388.00;5003687;28;20203;-73
2023/01/03 00:10:16;;;;;;;4.38;1.13;;;;;;;2.70;59.32;96390.59;5007040;28;20090;-73
2023/01/03 00:12:41;;;;;;;2.00;1.02;;;;;;;2.14;61.29;96393.50;4985874;28;20539;-73
2023/01/03 00:15:07;;;;;;;2.15;1.00;;;;;;;2.58;59.88;96397.56;4997886;28;20459;-73
2023/01/03 00:17:33;;;;;;;2.47;1.25;;;;;;;2.93;59.32;96394.22;5000164;28;20187;-73
2023/01/03 00:19:58;;;;;;;2.78;1.00;;;;;;;2.82;59.51;96394.16;5011033;28;20077;-73
2023/01/03 00:22:24;;;;;;;3.05;1.08;;;;;;;2.86;58.97;96396.41;5002394;28;20076;-73
2023/01/03 00:24:51;;;;;;;2.55;1.00;;;;;;;3.22;58.15;96388.59;5002885;28;20094;-73
2023/01/03 00:27:16;;;;;;;1.60;0.80;;;;;;;3.32;57.29;96391.41;5004682;28;20483;-73
2023/01/03 00:29:42;;;;;;;2.88;1.25;;;;;;;3.39;57.10;96387.38;5012761;28;20099;-73
2023/01/03 00:32:07;;;;;;;4.20;1.73;;;;;;;3.52;56.84;96381.22;5008241;28;20080;-73
2023/01/03 00:34:33;;;;;;;1.42;0.85;;;;;;;3.33;56.87;96389.63;4995753;28;20083;-73
2023/01/03 00:36:58;;;;;;;3.88;1.33;;;;;;;3.23;57.21;96384.19;5001372;28;20185;-73
2023/01/03 00:39:24;;;;;;;1.45;1.00;;;;;;;2.61;59.55;96389.44;5011557;28;20213;-72
2023/01/03 00:41:49;;;;;;;2.45;1.35;;;;;;;3.31;57.75;96376.56;5005623;28;20156;-73
2023/01/03 00:44:15;;;;;;;0.70;0.70;;;;;;;2.89;58.30;96382.19;5009024;28;20103;-73
2023/01/03 00:46:40;;;;;;;4.20;1.45;;;;;;;3.65;57.08;96381.13;5005763;28;20077;-73
2023/01/03 00:49:06;;;;;;;2.38;1.20;;;;;;;3.51;56.71;96385.63;4988487;28;20101;-73
2023/01/03 00:51:33;;;;;;;2.28;0.95;;;;;;;3.27;57.55;96394.38;5006777;28;20488;-73
2023/01/03 00:53:59;;;;;;;2.42;0.90;;;;;;;3.43;56.70;96387.97;5004005;28;20107;-73
2023/01/03 00:56:30;;;;;;;7.78;1.50;;;;;;;3.67;56.67;96395.00;5002731;28;20107;-73
2023/01/03 00:58:56;;;;;;;4.80;1.40;;;;;;;3.97;55.48;96395.44;4988730;28;20088;-73
2023/01/03 01:01:29;;;;;;;2.60;1.27;;;;;;;4.06;55.40;96395.56;4984823;28;20087;-73
2023/01/03 01:04:02;;;;;;;3.75;1.02;;;;;;;4.25;54.89;96403.88;5003165;28;20088;-73
2023/01/03 01:06:29;;;;;;;3.00;1.30;;;;;;;4.12;54.43;96394.25;5004633;28;20119;-73
2023/01/03 01:08:56;;;;;;;3.47;1.30;;;;;;;4.42;53.35;96400.75;5002285;28;20213;-73
2023/01/03 01:11:22;;;;;;;10.00;5.80;;;;;;;4.41;54.72;96400.88;5004935;28;20083;-73
2023/01/03 01:13:47;;;;;;;4.60;1.60;;;;;;;4.87;53.55;96403.50;4986319;28;20108;-73
2023/01/03 01:16:21;;;;;;;2.75;1.40;;;;;;;4.83;53.72;96410.84;5004665;28;20139;-73
2023/01/03 01:18:47;;;;;;;5.10;1.33;;;;;;;5.22;52.31;96402.47;5003162;28;20604;-73
2023/01/03 01:21:17;;;;;;;6.20;1.75;;;;;;;5.37;52.24;96408.31;5009175;28;20597;-73
2023/01/03 01:23:42;;;;;;;4.43;1.70;;;;;;;5.45;51.42;96412.97;5004364;28;20068;-73
2023/01/03 01:26:10;;;;;;;2.75;1.40;;;;;;;5.52;51.65;96419.44;5007221;28;20146;-73
2023/01/03 01:28:36;;;;;;;2.90;1.90;;;;;;;4.19;54.74;96428.94;4986166;28;20078;-73
2023/01/03 01:31:02;;;;;;;2.47;1.90;;;;;;;5.29;52.28;96429.22;5004822;28;20443;-73
2023/01/03 01:33:27;;;;;;;2.72;1.95;;;;;;;5.28;52.96;96425.75;4983526;28;20116;-73
2023/01/03 01:35:53;;;;;;;4.22;1.80;;;;;;;4.75;53.68;96436.94;4999219;28;20514;-73
2023/01/03 01:38:18;;;;;;;5.35;2.28;;;;;;;4.79;54.17;96430.47;5010431;28;20208;-73
2023/01/03 01:40:43;;;;;;;4.18;1.80;;;;;;;4.83;53.85;96435.41;5010845;28;20163;-73
2023/01/03 01:46:20;;;;;;;6.15;2.28;;;;;;;4.29;55.69;96436.97;5000976;28;20165;-73
2023/01/03 01:48:46;;;;;;;9.02;1.92;;;;;;;4.08;57.01;96437.63;4998962;28;20124;-73
2023/01/03 01:51:11;;;;;;;2.42;2.03;;;;;;;3.99;56.82;96440.97;4983083;28;20163;-73
2023/01/03 01:53:37;;;;;;;1.52;1.42;;;;;;;3.78;57.39;96446.91;4994311;28;20625;-73
2023/01/03 01:56:08;;;;;;;4.18;1.95;;;;;;;4.15;57.00;96452.03;4981655;28;20084;-73
2023/01/03 01:58:36;;;;;;;3.03;2.00;;;;;;;4.16;56.14;96448.44;5003826;28;20073;-73
2023/01/03 02:01:03;;;;;;;2.20;2.00;;;;;;;4.24;56.24;96452.28;4999855;28;20526;-73
2023/01/03 02:03:29;;;;;;;3.72;2.20;;;;;;;4.01;56.42;96452.25;4983597;28;20152;-73
2023/01/03 02:05:54;;;;;;;2.97;2.10;;;;;;;4.27;55.44;96447.63;5001001;28;20121;-73
2023/01/03 02:08:20;;;;;;;3.38;1.58;;;;;;;3.71;57.09;96448.31;4984797;28;20104;-73
2023/01/03 02:10:51;;;;;;;3.30;2.17;;;;;;;3.98;56.09;96450.66;5002242;28;20554;-73
2023/01/03 02:13:33;;;;;;;5.30;2.10;;;;;;;3.92;55.99;96448.50;5001003;28;20118;-73
2023/01/03 02:15:58;;;;;;;2.35;1.90;;;;;;;3.93;55.05;96450.19;4998752;28;20589;-73
2023/01/03 02:18:45;;;;;;;3.27;2.30;;;;;;;3.72;56.40;96457.88;5006654;28;20303;-73
2023/01/03 02:21:32;;;;;;;9.50;5.25;;;;;;;4.27;54.94;96450.25;5007281;28;20325;-73
2023/01/03 02:24:22;;;;;;;2.58;2.33;;;;;;;4.31;55.07;96453.47;5006019;28;20079;-73
2023/01/03 02:27:00;;;;;;;2.97;2.25;;;;;;;3.35;56.24;96474.56;5012407;28;20511;-73
2023/01/03 02:29:50;;;;;;;2.90;2.00;;;;;;;4.17;55.08;96465.94;5011795;28;20274;-73
2023/01/03 02:32:25;;;;;;;3.90;2.33;;;;;;;4.25;54.99;96457.44;5008711;28;20470;-73
2023/01/03 02:35:15;;;;;;;2.35;2.15;;;;;;;4.58;53.78;96462.88;5005455;28;20516;-73
2023/01/03 02:38:04;;;;;;;3.83;2.17;;;;;;;4.22;55.26;96475.28;5011555;28;20119;-73
2023/01/03 02:40:34;;;;;;;2.97;2.22;;;;;;;4.57;54.23;96469.94;5012087;28;20109;-73
2023/01/03 02:43:15;;;;;;;3.20;2.40;;;;;;;4.74;53.72;96462.50;5016082;28;20099;-73
2023/01/03 02:46:14;;;;;;;3.22;2.15;;;;;;;4.80;53.34;96461.19;4993108;28;20565;-73
2023/01/03 02:48:43;;;;;;;2.95;2.00;;;;;;;4.71;53.21;96468.03;5010072;28;20105;-73
2023/01/03 02:51:32;;;;;;;3.05;2.20;;;;;;;4.98;52.61;96458.91;5013796;28;20094;-73
2023/01/03 02:53:57;;;;;;;4.90;2.30;;;;;;;4.25;54.86;96467.97;5016893;28;20110;-73
2023/01/03 02:56:54;;;;;;;5.25;2.13;;;;;;;3.87;55.88;96469.06;5006400;28;20108;-73
2023/01/03 02:59:22;;;;;;;2.88;2.17;;;;;;;4.70;52.96;96472.44;4998342;28;20265;-73
2023/01/03 03:01:49;;;;;;;2.22;2.03;;;;;;;4.62;53.88;96469.56;5001873;28;20720;-73
2023/01/03 03:04:15;;;;;;;3.80;2.20;;;;;;;4.69;52.87;96472.56;4990640;28;20172;-73
2023/01/03 03:07:03;;;;;;;2.47;2.05;;;;;;;3.67;54.64;96477.50;5009444;28;20100;-73
2023/01/03 03:09:29;;;;;;;3.40;2.20;;;;;;;3.65;55.27;96482.06;5004296;28;20185;-73
2023/01/03 03:14:43;;;;;;;3.28;2.00;;;;;;;4.42;53.06;96477.22;5008894;28;20114;-73
2023/01/03 03:17:12;;;;;;;2.33;1.85;;;;;;;3.37;56.16;96494.56;5007201;28;20121;-73
2023/01/03 03:25:29;;;;;;;2.75;1.60;;;;;;;3.67;55.43;96481.94;4993975;28;20478;-73
2023/01/03 03:30:45;;;;;;;2.10;1.67;;;;;;;3.03;57.18;96486.47;5001076;28;20166;-73
2023/01/03 03:33:11;;;;;;;2.75;1.27;;;;;;;2.30;59.88;96489.69;5024138;28;20108;-73
2023/01/03 03:36:00;;;;;;;7.38;1.60;;;;;;;2.74;57.79;96489.34;5012120;28;20097;-73
2023/01/03 03:38:36;;;;;;;5.10;1.40;;;;;;;2.60;59.05;96485.06;5009279;28;20106;-73
2023/01/03 03:47:32;;;;;;;1.60;1.50;;;;;;;2.52;59.19;96475.09;4989662;28;20139;-73
2023/01/03 03:50:26;;;;;;;2.00;1.60;;;;;;;2.60;59.23;96479.78;5001294;28;20601;-73
2023/01/03 03:52:54;;;;;;;2.13;1.45;;;;;;;2.78;57.49;96475.88;5014871;28;20113;-73
2023/01/03 03:55:50;;;;;;;1.73;1.23;;;;;;;1.80;61.03;96477.22;4987001;28;20549;-73
2023/01/03 03:58:35;;;;;;;1.52;1.42;;;;;;;1.89;60.53;96478.38;5015978;28;20530;-73
2023/01/03 04:01:00;;;;;;;4.10;1.90;;;;;;;2.06;60.37;96479.88;5012173;28;20170;-73
2023/01/03 04:03:26;;;;;;;2.40;1.90;;;;;;;2.45;59.46;96472.00;5005071;28;20151;-73
2023/01/03 04:05:54;;;;;;;7.35;1.65;;;;;;;2.05;58.82;96482.63;5009008;28;20090;-74
2023/01/03 04:08:20;;;;;;;3.63;1.80;;;;;;;2.83;57.67;96475.56;5010800;28;20155;-73
2023/01/03 04:10:45;;;;;;;5.63;1.58;;;;;;;2.84;56.93;96481.66;5013615;28;20384;-73
2023/01/03 04:13:10;;;;;;;5.30;1.33;;;;;;;2.90;57.14;96489.13;5009732;28;20115;-73
2023/01/03 04:15:36;;;;;;;2.67;1.75;;;;;;;2.97;57.14;96481.63;4994625;28;20572;-73
2023/01/03 04:18:01;;;;;;;2.50;1.50;;;;;;;3.33;56.09;96482.56;5011511;28;20162;-73
2023/01/03 04:20:27;;;;;;;2.60;1.48;;;;;;;2.87;57.40;96490.19;5003922;28;20107;-73
2023/01/03 04:22:53;;;;;;;1.35;1.25;;;;;;;2.39;58.45;96488.22;4988837;28;20098;-73
2023/01/03 04:25:18;;;;;;;2.95;1.83;;;;;;;2.58;58.57;96479.06;5003313;28;20499;-73
2023/01/03 04:27:43;;;;;;;3.58;1.90;;;;;;;2.59;58.08;96486.81;5003694;28;20077;-74
2023/01/03 04:30:10;;;;;;;1.10;1.10;;;;;;;2.71;58.00;96489.56;5008518;28;20115;-72
2023/01/03 04:32:35;;;;;;;2.15;1.30;;;;;;;2.35;58.79;96482.31;4990213;28;20111;-73
2023/01/03 04:35:01;;;;;;;3.25;1.55;;;;;;;2.85;57.52;96491.22;5006698;28;20489;-73
2023/01/03 04:37:26;;;;;;;1.73;1.38;;;;;;;2.90;56.78;96481.22;5002882;28;20113;-73
2023/01/03 04:39:52;;;;;;;1.85;1.60;;;;;;;3.36;55.52;96481.50;5005414;28;20457;-73
2023/01/03 04:45:01;;;;;;;3.50;1.60;;;;;;;2.90;56.92;96482.06;5003645;28;20103;-73
2023/01/03 04:47:27;;;;;;;5.20;2.38;;;;;;;3.23;55.31;96484.22;5008662;28;20094;-73
2023/01/03 04:49:53;;;;;;;3.03;1.45;;;;;;;3.58;54.59;96485.25;5002855;28;20158;-73
2023/01/03 04:52:18;;;;;;;1.40;1.20;;;;;;;3.19;56.20;96494.09;5013456;28;20172;-73
2023/01/03 04:54:43;;;;;;;2.33;1.45;;;;;;;3.85;53.68;96478.91;5018362;28;20079;-73
2023/01/03 04:57:09;;;;;;;5.15;1.73;;;;;;;3.66;54.63;96480.25;5001405;28;20104;-73
2023/01/03 04:59:34;;;;;;;1.30;1.20;;;;;;;3.49;54.98;96487.59;5001218;28;20097;-73
2023/01/03 05:02:00;;;;;;;2.45;1.45;;;;;;;3.70;54.32;96479.06;4982708;28;20097;-73
2023/01/03 05:04:26;;;;;;;3.28;1.80;;;;;;;3.87;53.39;96485.72;5000633;28;20104;-73
2023/01/03 05:06:52;;;;;;;1.80;1.45;;;;;;;3.86;54.14;96486.69;5005047;28;20094;-73
2023/01/03 05:09:17;;;;;;;4.60;1.73;;;;;;;3.92;53.75;96488.84;4998038;28;20178;-73
2023/01/03 05:11:43;;;;;;;3.88;1.80;;;;;;;4.18;53.05;96493.13;5002771;28;20441;-73
2023/01/03 05:14:09;;;;;;;2.58;1.25;;;;;;;3.42;54.41;96495.09;4980121;28;20096;-73
2023/01/03 05:16:34;;;;;;;3.33;1.88;;;;;;;3.99;53.61;96491.03;4996334;28;20167;-73
2023/01/03 05:19:00;;;;;;;2.97;1.58;;;;;;;4.05;53.03;96490.59;5003532;28;20068;-73
2023/01/03 05:26:54;;;;;;;2.05;1.70;;;;;;;4.01;53.16;96494.41;5006657;28;20167;-73
2023/01/03 05:29:20;;;;;;;2.05;1.48;;;;;;;3.94;53.50;96489.59;5000366;28;20532;-73
2023/01/03 05:31:45;;;;;;;4.22;1.75;;;;;;;4.09;52.67;96493.81;4982039;28;20082;-73
2023/01/03 05:34:11;;;;;;;3.95;1.80;;;;;;;3.58;53.68;96495.78;4993717;28;20163;-73
2023/01/03 05:36:36;;;;;;;1.83;1.70;;;;;;;3.87;53.19;96498.91;4998781;28;20104;-73
2023/01/03 05:39:02;;;;;;;6.28;1.98;;;;;;;3.06;55.22;96499.38;4998841;28;20087;-73
2023/01/03 05:44:11;;;;;;;4.68;1.70;;;;;;;4.31;52.05;96491.25;4997572;28;20120;-73
2023/01/03 05:46:37;;;;;;;4.00;1.70;;;;;;;4.55;51.46;96484.19;4998303;28;20096;-73
2023/01/03 05:49:02;;;;;;;4.78;1.65;;;;;;;4.51;51.69;96488.88;5000208;28;20109;-73
2023/01/03 05:51:28;;;;;;;2.83;1.70;;;;;;;4.14;51.90;96497.78;4997420;28;20072;-73
2023/01/03 05:53:53;;;;;;;4.82;1.65;;;;;;;3.91;52.72;96496.91;4995694;28;20096;-74
2023/01/03 05:56:18;;;;;;;4.47;1.55;;;;;;;4.29;51.93;96494.97;4999827;28;20542;-73
2023/01/03 05:58:44;;;;;;;4.38;1.70;;;;;;;4.24;51.40;96495.31;5001549;28;20555;-73
2023/01/03 06:01:10;;;;;;;1.85;1.35;;;;;;;4.15;51.98;96499.47;4986217;28;20170;-73
2023/01/03 06:03:35;;;;;;;3.92;1.60;;;;;;;3.31;53.11;96513.44;5004510;28;20098;-73
2023/01/03 06:06:02;;;;;;;4.28;1.70;;;;;;;3.54;54.12;96510.97;5002464;28;20095;-73
2023/01/03 06:08:28;;;;;;;5.18;1.60;;;;;;;3.17;54.39;96510.00;4999975;28;20104;-73
2023/01/03 06:10:53;;;;;;;2.67;1.70;;;;;;;3.36;54.17;96511.31;5008262;28;20082;-73
2023/01/03 06:13:20;;;;;;;3.25;1.70;;;;;;;3.24;55.29;96517.47;5007169;28;20096;-73
2023/01/03 06:17:53;;;;;;;5.18;1.75;;;;;;;4.17;51.85;96508.13;5005724;28;20561;-73
2023/01/03 06:18:33;;;;;;;6.05;1.90;;;;;;;3.09;55.04;96517.59;5004534;28;20196;-73
2023/01/03 06:20:58;;;;;;;6.43;1.80;;;;;;;3.70;53.45;96509.84;5003654;28;20655;-73
2023/01/03 06:23:23;;;;;;;5.55;2.00;;;;;;;3.75;53.19;96512.97;5005809;28;20082;-73
2023/01/03 06:25:49;;;;;;;3.28;2.00;;;;;;;3.66;53.40;96515.34;5008990;28;20095;-73
2023/01/03 06:28:14;;;;;;;5.32;2.20;;;;;;;4.10;52.34;96506.03;5010133;28;20633;-73
2023/01/03 06:30:41;;;;;;;3.22;1.80;;;;;;;4.39;51.30;96501.19;5003259;28;20081;-73
2023/01/03 06:33:06;;;;;;;3.45;1.92;;;;;;;4.33;50.78;96506.94;4993838;28;20184;-73
2023/01/03 06:35:32;;;;;;;4.30;1.95;;;;;;;4.24;51.26;96502.34;5009759;28;20093;-73
2023/01/03 06:37:57;;;;;;;3.38;1.90;;;;;;;4.22;51.45;96499.84;5006982;28;20149;-73
2023/01/03 06:40:22;;;;;;;5.15;2.67;;;;;;;4.20;51.32;96507.03;5006476;28;20565;-73
2023/01/03 06:42:48;;;;;;;3.42;1.90;;;;;;;4.18;51.23;96512.41;5007460;28;20385;-73
2023/01/03 06:53:28;;;;;;;5.22;2.03;;;;;;;4.09;51.52;96523.66;5003349;28;20576;-73
2023/01/03 06:55:53;;;;;;;2.28;2.08;;;;;;;3.71;52.07;96529.97;4986805;28;20480;-73
2023/01/03 06:58:19;;;;;;;4.20;2.08;;;;;;;3.85;52.29;96528.94;5004838;28;20080;-73
2023/01/03 07:00:44;;;;;;;5.40;1.95;;;;;;;3.87;51.68;96527.03;5005532;28;20329;-73
2023/01/03 07:03:09;;;;;;;3.35;1.95;;;;;;;4.09;51.39;96530.72;4987685;28;20106;-73
2023/01/03 07:05:35;;;;;;;6.03;2.90;;;;;;;4.02;51.97;96530.34;5005768;28;20091;-73
2023/01/03 07:08:00;;;;;;;6.25;2.75;;;;;;;4.18;51.62;96535.28;5003073;28;20082;-73
2023/01/03 07:10:26;;;;;;;3.63;2.40;;;;;;;4.39;51.18;96532.00;5009700;28;20437;-73
2023/01/03 07:15:35;;;;;;;6.57;3.38;;;;;;;3.48;53.78;96546.50;5006587;28;20595;-73
2023/01/03 07:18:00;;;;;;;4.63;2.97;;;;;;;3.83;53.02;96546.66;5006651;28;20088;-73
2023/01/03 07:20:26;;;;;;;6.80;3.50;;;;;;;3.62;53.72;96545.50;5006210;28;20748;-73
2023/01/03 07:22:51;;;;;;;2.92;2.60;;;;;;;3.96;52.76;96551.88;5003703;28;20075;-73
2023/01/03 07:25:17;;;;;;;5.97;3.05;;;;;;;4.37;52.13;96553.22;5007590;28;20100;-73
2023/01/03 07:27:42;;;;;;;6.20;3.08;;;;;;;4.22;51.82;96560.47;5007544;28;20059;-73
2023/01/03 07:30:08;;;;;;;5.13;4.07;;;;;;;3.89;52.72;96573.41;5009116;28;20576;-73
2023/01/03 07:32:34;;;;;;;7.18;4.18;;;;;;;2.05;57.77;96583.28;5006537;28;20144;-73
2023/01/03 07:34:59;;;;;;;6.07;4.05;;;;;;;2.97;57.86;96577.19;5005803;28;20091;-73
2023/01/03 07:37:25;;;;;;;5.07;3.25;;;;;;;3.76;55.25;96575.25;5005664;28;20095;-73
2023/01/03 07:39:50;;;;;;;7.63;4.30;;;;;;;3.75;53.90;96582.31;5004326;28;20075;-73
2023/01/03 07:44:59;;;;;;;6.10;4.40;;;;;;;4.12;53.01;96580.56;5007391;28;20100;-73
2023/01/03 07:47:25;;;;;;;11.13;4.60;;;;;;;3.67;53.35;96592.53;5007931;28;20477;-73
2023/01/03 07:49:50;;;;;;;9.65;4.55;;;;;;;3.90;53.79;96585.63;5007197;28;20160;-73
2023/01/03 07:52:15;;;;;;;6.50;4.55;;;;;;;4.32;52.71;96584.38;5009850;28;20096;-73
2023/01/03 07:54:41;;;;;;;7.53;4.80;;;;;;;4.17;52.47;96588.97;5003935;28;20152;-73
2023/01/03 07:57:06;;;;;;;10.00;5.03;;;;;;;3.00;56.33;96591.91;5005524;28;20579;-73
2023/01/03 07:59:32;;;;;;;7.68;4.72;;;;;;;3.31;55.60;96589.78;4998047;28;20190;-73
2023/01/03 08:01:57;;;;;;;9.57;5.35;;;;;;;2.69;56.56;96591.41;5000013;28;20116;-73
2023/01/03 08:04:22;;;;;;;7.28;5.30;;;;;;;2.39;56.90;96599.44;5003851;28;20672;-73
2023/01/03 08:06:48;;;;;;;6.28;4.40;;;;;;;3.74;54.52;96604.31;5004014;28;20267;-73
2023/01/03 08:14:41;;;;;;;6.63;4.30;;;;;;;4.06;52.99;96602.94;5002461;28;20127;-73
2023/01/03 08:17:06;;;;;;;9.45;5.28;;;;;;;3.02;54.70;96604.03;5005438;28;20102;-73
2023/01/03 08:19:31;;;;;;;10.43;4.20;;;;;;;3.09;55.61;96606.25;5005304;28;20098;-73
2023/01/03 08:21:57;;;;;;;5.47;4.25;;;;;;;3.35;55.52;96603.56;5007089;28;20102;-73
2023/01/03 08:24:22;;;;;;;6.45;4.70;;;;;;;3.28;55.39;96609.28;5003884;28;20094;-73
2023/01/03 08:26:48;;;;;;;6.10;4.25;;;;;;;4.00;54.11;96606.03;5009610;28;20685;-73
2023/01/03 08:29:13;;;;;;;6.53;4.18;;;;;;;4.54;52.50;96598.56;5003738;28;20590;-73
2023/01/03 08:31:41;;;;;;;8.38;4.55;;;;;;;4.60;51.21;96606.03;5004016;28;20105;-73
2023/01/03 08:34:07;;;;;;;9.15;4.53;;;;;;;4.44;50.97;96608.97;5003783;28;20096;-73
2023/01/03 08:36:35;;;;;;;6.13;4.25;;;;;;;4.75;51.05;96601.38;5000264;28;21027;-73
2023/01/03 08:39:05;;;;;;;6.30;4.60;;;;;;;3.81;52.49;96613.47;5005888;28;20071;-73
2023/01/03 08:41:32;;;;;;;6.15;4.47;;;;;;;2.65;57.72;96619.66;4986151;28;20516;-73
2023/01/03 08:43:58;;;;;;;7.57;5.13;;;;;;;1.65;58.50;96630.47;5016837;28;20145;-73
2023/01/03 08:46:24;;;;;;;6.85;4.65;;;;;;;3.17;56.53;96624.97;5005233;28;20066;-73
2023/01/03 08:48:49;;;;;;;8.90;4.22;;;;;;;3.90;53.79;96627.78;5004994;28;20168;-73
2023/01/03 08:51:15;;;;;;;8.20;3.85;;;;;;;3.32;54.55;96636.19;5006503;28;20417;-74
2023/01/03 08:53:40;;;;;;;7.88;4.18;;;;;;;4.26;53.10;96627.84;5003009;28;20633;-74
2023/01/03 08:56:06;;;;;;;9.32;4.32;;;;;;;4.48;52.06;96628.03;5001052;28;20087;-73
2023/01/03 08:58:31;;;;;;;6.05;4.13;;;;;;;3.98;53.65;96624.56;5006651;28;20081;-74
2023/01/03 09:01:04;;;;;;;6.68;4.38;;;;;;;3.61;54.97;96630.69;5008011;28;20126;-73
2023/01/03 09:03:30;;;;;;;10.10;4.75;;;;;;;3.11;56.03;96636.75;5003540;28;20062;-73
2023/01/03 09:05:59;;;;;;;7.45;5.22;;;;;;;3.49;55.60;96637.69;5004582;28;20081;-74
2023/01/03 09:08:24;;;;;;;10.82;7.10;;;;;;;4.05;54.37;96631.09;5000964;28;20149;-74
2023/01/03 09:10:50;;;;;;;7.68;4.55;;;;;;;4.26;53.65;96629.63;5007309;28;20067;-74
2023/01/03 09:13:15;;;;;;;9.15;5.25;;;;;;;4.50;53.03;96629.63;5004521;28;20290;-73
2023/01/03 09:15:41;;;;;;;7.68;4.43;;;;;;;3.68;54.03;96631.94;5000662;28;20136;-73
2023/01/03 09:18:06;;;;;;;10.80;5.55;;;;;;;3.93;55.44;96630.19;5010413;28;20088;-74
2023/01/03 09:20:31;;;;;;;7.40;4.22;;;;;;;3.73;54.07;96638.69;4997227;28;20677;-75
2023/01/03 09:22:57;;;;;;;7.50;4.20;;;;;;;3.66;55.35;96640.91;5001248;28;20091;-74
2023/01/03 09:25:22;;;;;;;5.88;3.60;;;;;;;3.55;55.16;96639.88;5001278;28;20090;-75
2023/01/03 09:27:48;;;;;;;21.05;15.00;;;;;;;4.44;54.99;96644.09;5001367;28;20579;-73
2023/01/03 09:30:16;;;;;;;15.18;10.68;;;;;;;4.21;54.65;96650.22;5010091;28;20086;-75
2023/01/03 09:32:42;;;;;;;24.63;18.15;;;;;;;3.88;56.46;96645.47;4996640;28;20094;-73
2023/01/03 09:35:08;;;;;;;8.60;4.10;;;;;;;4.22;53.68;96650.09;5001979;28;20076;-74
2023/01/03 09:37:33;;;;;;;10.80;6.72;;;;;;;4.49;53.84;96641.09;4997293;28;20108;-74
2023/01/03 09:39:58;;;;;;;19.08;12.93;;;;;;;4.42;54.92;96653.91;4997845;28;20110;-73
2023/01/03 09:45:15;;;;;;;12.63;8.63;;;;;;;3.12;57.03;96648.97;5007912;28;20096;-74
2023/01/03 09:47:40;;;;;;;17.15;9.93;;;;;;;3.80;56.54;96648.69;4996074;28;20065;-75
2023/01/03 09:50:06;;;;;;;6.10;3.80;;;;;;;2.50;58.58;96648.69;4997972;28;20085;-74
2023/01/03 10:04:24;;;;;;;11.07;8.30;;;;;;;4.30;53.40;96645.13;4988506;28;20136;-73
2023/01/03 10:06:59;;;;;;;6.50;2.88;;;;;;;4.92;51.85;96644.94;5003925;28;20074;-74
2023/01/03 10:09:42;;;;;;;5.63;2.70;;;;;;;4.77;51.31;96646.13;4982913;28;20086;-74
2023/01/03 10:12:20;;;;;;;5.78;2.55;;;;;;;4.54;52.59;96648.69;4980055;28;20524;-75
2023/01/03 10:15:10;;;;;;;4.90;2.53;;;;;;;4.55;52.57;96642.44;4984001;28;20266;-73
2023/01/03 10:18:23;;;;;;;7.22;4.82;;;;;;;5.32;51.25;96640.22;4998063;28;20641;-74
2023/01/03 10:21:07;;;;;;;10.48;2.67;;;;;;;4.20;52.39;96652.00;5002004;28;20092;-74
2023/01/03 10:23:33;;;;;;;9.25;5.07;;;;;;;5.24;51.76;96630.28;4991112;28;20579;-72
2023/01/03 10:25:58;;;;;;;5.15;2.60;;;;;;;5.33;50.20;96631.34;4982966;28;20235;-73
2023/01/03 10:28:25;;;;;;;6.03;2.60;;;;;;;3.40;55.64;96633.88;4996268;28;20646;-73
2023/01/03 10:31:32;;;;;;;7.57;2.50;;;;;;;5.54;50.02;96630.63;4982922;28;20413;-73
2023/01/03 10:33:57;;;;;;;5.15;2.50;;;;;;;5.71;48.75;96629.28;4998191;28;20252;-73
2023/01/03 10:36:23;;;;;;;5.50;3.10;;;;;;;6.12;48.34;96622.47;4995802;28;20766;-73
2023/01/03 10:39:01;;;;;;;4.07;2.20;;;;;;;5.59;50.28;96626.66;5004300;28;20481;-72
2023/01/03 10:41:45;;;;;;;5.15;2.47;;;;;;;3.37;55.99;96633.25;5000043;28;20092;-72
2023/01/03 10:44:30;;;;;;;3.88;2.20;;;;;;;5.60;50.33;96622.19;5000316;28;20088;-72
2023/01/03 10:46:58;;;;;;;6.35;2.65;;;;;;;4.84;51.89;96620.94;5004457;28;20099;-72
2023/01/03 10:49:25;;;;;;;5.70;3.73;;;;;;;5.09;52.07;96613.81;5008436;28;20587;-72
2023/01/03 10:51:59;;;;;;;9.63;6.15;;;;;;;5.85;49.98;96615.78;5011053;28;20048;-72
2023/01/03 10:54:30;;;;;;;6.97;2.30;;;;;;;5.35;50.59;96621.50;5003563;28;20085;-72
2023/01/03 10:56:56;;;;;;;4.85;2.42;;;;;;;4.78;50.95;96622.25;5003526;28;20149;-72
2023/01/03 10:59:22;;;;;;;9.30;5.32;;;;;;;5.88;50.59;96624.47;4990887;28;20062;-72
2023/01/03 11:02:15;;;;;;;4.07;2.17;;;;;;;4.87;52.34;96618.09;5009334;28;20101;-72
2023/01/03 11:04:41;;;;;;;3.75;2.08;;;;;;;5.43;50.84;96615.59;4985845;28;20116;-72
2023/01/03 11:07:12;;;;;;;2.63;1.40;;;;;;;6.04;48.96;96610.81;5003898;28;20496;-72
2023/01/03 11:09:54;;;;;;;2.58;1.65;;;;;;;6.56;47.07;96610.19;5003631;28;20470;-72
2023/01/03 11:12:39;;;;;;;5.88;1.70;;;;;;;5.24;50.09;96597.75;5003872;28;20088;-72
2023/01/03 11:15:13;;;;;;;5.68;1.90;;;;;;;6.77;47.42;96586.38;4993746;28;20063;-72
2023/01/03 11:17:38;;;;;;;5.03;1.75;;;;;;;7.00;46.14;96599.44;4993076;28;20086;-72
2023/01/03 11:20:18;;;;;;;4.68;1.83;;;;;;;5.96;48.48;96590.31;4982058;28;20069;-72
2023/01/03 11:22:45;;;;;;;3.22;1.52;;;;;;;6.98;46.67;96589.00;4999375;28;20495;-72
2023/01/03 11:25:31;;;;;;;9.18;1.58;;;;;;;6.27;46.63;96597.53;5003691;28;20157;-71
2023/01/03 11:28:07;;;;;;;3.08;1.65;;;;;;;5.01;50.03;96589.78;5000171;28;20451;-72
2023/01/03 11:30:40;;;;;;;3.03;1.35;;;;;;;5.01;50.08;96602.97;4996765;28;20053;-72
2023/01/03 11:33:30;;;;;;;11.63;5.93;;;;;;;5.56;51.19;96583.78;4996260;28;20657;-72
2023/01/03 11:36:27;;;;;;;15.75;8.20;;;;;;;6.45;48.25;96588.06;5003115;28;20099;-72
2023/01/03 11:39:18;;;;;;;5.35;2.05;;;;;;;6.16;47.55;96593.13;5000337;28;20339;-72
2023/01/03 11:42:05;;;;;;;3.40;1.60;;;;;;;5.54;49.18;96606.84;4997518;28;20101;-72
2023/01/03 11:45:17;;;;;;;2.80;1.27;;;;;;;3.37;53.73;96615.66;5004022;28;20087;-72
2023/01/03 11:47:52;;;;;;;7.32;1.95;;;;;;;5.21;50.21;96590.91;5007090;28;20085;-72
2023/01/03 11:50:27;;;;;;;9.18;3.72;;;;;;;5.29;49.34;96590.28;5000720;28;20510;-72
2023/01/03 11:52:56;;;;;;;5.97;2.22;;;;;;;5.43;50.10;96584.78;5000759;28;20094;-72
2023/01/03 11:55:21;;;;;;;8.02;3.95;;;;;;;6.49;46.25;96576.28;4980469;28;20169;-72
2023/01/03 11:58:04;;;;;;;4.97;1.87;;;;;;;6.24;46.43;96570.38;5004085;28;20186;-72
2023/01/03 12:00:55;;;;;;;3.75;2.47;;;;;;;7.90;43.95;96575.81;5006336;28;20088;-72
2023/01/03 12:03:23;;;;;;;14.00;5.72;;;;;;;8.90;41.50;96563.28;4999227;28;20051;-72
2023/01/03 12:06:17;;;;;;;3.90;2.20;;;;;;;9.78;38.92;96564.75;5000895;28;20083;-69
2023/01/03 12:09:12;;;;;;;8.05;4.22;;;;;;;9.85;38.46;96567.66;5002856;28;20099;-69
2023/01/03 12:12:06;;;;;;;3.13;1.88;;;;;;;7.89;42.96;96570.63;4998701;28;20074;-69
2023/01/03 12:14:52;;;;;;;1.33;1.10;;;;;;;7.53;42.18;96579.03;4996966;28;20087;-69
2023/01/03 12:17:27;;;;;;;3.20;1.60;;;;;;;10.00;37.42;96562.66;4977242;28;20108;-69
2023/01/03 12:20:14;;;;;;;10.05;6.18;;;;;;;12.38;32.91;96558.94;4983927;28;20050;-72
2023/01/03 12:22:51;;;;;;;3.60;2.00;;;;;;;8.90;39.67;96564.13;5004013;28;20029;-72
2023/01/03 12:25:36;;;;;;;18.40;12.43;;;;;;;11.36;35.98;96560.66;5004386;28;20559;-72
2023/01/03 12:28:02;;;;;;;4.88;2.22;;;;;;;9.09;38.93;96557.13;4990767;28;20043;-72
2023/01/03 12:30:36;;;;;;;4.97;2.28;;;;;;;7.68;41.78;96566.22;4998347;28;20042;-72
2023/01/03 12:33:16;;;;;;;4.00;1.30;;;;;;;6.56;44.80;96563.38;5007458;28;20087;-72
2023/01/03 12:35:45;;;;;;;6.25;1.58;;;;;;;6.57;45.39;96574.81;4998899;28;20157;-72
2023/01/03 12:38:11;;;;;;;3.17;1.48;;;;;;;6.07;45.54;96560.34;5002066;28;20092;-72
2023/01/03 12:40:56;;;;;;;13.65;5.85;;;;;;;6.58;45.74;96560.59;4978909;28;20569;-72
2023/01/03 12:43:45;;;;;;;4.05;2.17;;;;;;;6.06;46.44;96550.75;4994491;28;20088;-72
2023/01/03 12:46:11;;;;;;;3.47;1.10;;;;;;;5.11;48.11;96555.63;4988118;28;20641;-72
2023/01/03 12:49:13;;;;;;;3.50;1.07;;;;;;;4.45;49.98;96553.47;4999923;28;20110;-72
2023/01/03 12:51:39;;;;;;;5.53;2.88;;;;;;;6.08;46.35;96544.34;4994416;28;20069;-72
2023/01/03 12:54:16;;;;;;;4.40;1.25;;;;;;;5.47;47.77;96559.78;5001294;28;20084;-72
2023/01/03 12:57:19;;;;;;;6.22;2.10;;;;;;;5.04;49.43;96553.41;4999304;28;20182;-71
2023/01/03 13:00:09;;;;;;;3.83;1.50;;;;;;;6.19;46.74;96548.75;5001265;28;20062;-73
2023/01/03 13:02:54;;;;;;;3.35;1.13;;;;;;;6.86;45.21;96545.88;5003552;28;20095;-72